createdAt,value
2022-12-09T00:00:09.227Z,15.30
2022-12-09T00:01:15.838Z,12.47
2022-12-09T00:02:18.049Z,12.00
2022-12-09T00:03:23.655Z,12.53
2022-12-09T00:04:25.966Z,14.37
2022-12-09T00:05:28.102Z,11.10
2022-12-09T00:06:30.881Z,14.43
2022-12-09T00:07:35.256Z,14.13
2022-12-09T00:08:37.423Z,13.37
2022-12-09T00:09:39.369Z,12.53
2022-12-09T00:10:43.948Z,15.77
2022-12-09T00:11:45.893Z,11.80
2022-12-09T00:12:47.576Z,14.20
2022-12-09T00:13:54.777Z,14.47
2022-12-09T00:14:56.576Z,11.03
2022-12-09T00:15:58.959Z,14.00
2022-12-09T00:17:01.032Z,13.77
2022-12-09T00:18:03.052Z,12.43
2022-12-09T00:19:04.912Z,13.30
2022-12-09T00:20:07.601Z,14.83
2022-12-09T00:21:23.279Z,11.00
2022-12-09T00:22:26.896Z,13.80
2022-12-09T00:23:28.558Z,12.17
2022-12-09T00:24:30.228Z,13.00
2022-12-09T00:25:32.240Z,11.03
2022-12-09T00:26:34.510Z,10.47
2022-12-09T00:27:36.300Z,13.43
2022-12-09T00:28:38.594Z,11.40
2022-12-09T00:29:40.542Z,14.17
2022-12-09T00:30:42.332Z,13.57
2022-12-09T00:31:44.361Z,15.00
2022-12-09T00:32:46.210Z,12.03
2022-12-09T00:33:48.018Z,11.23
2022-12-09T00:34:49.915Z,12.83
2022-12-09T00:35:51.721Z,13.00
2022-12-09T00:36:53.473Z,13.37
2022-12-09T00:37:55.223Z,12.73
2022-12-09T00:38:58.563Z,13.23
2022-12-09T00:40:00.539Z,11.90
2022-12-09T00:41:02.529Z,12.73
2022-12-09T00:42:04.466Z,11.83
2022-12-09T00:43:06.412Z,11.70
2022-12-09T00:44:08.257Z,11.33
2022-12-09T00:45:10.927Z,11.30
2022-12-09T00:46:14.021Z,10.20
2022-12-09T00:47:16.195Z,12.83
2022-12-09T00:48:18.544Z,10.40
2022-12-09T00:49:20.628Z,9.20
2022-12-09T00:50:22.577Z,11.13
2022-12-09T00:51:25.699Z,12.57
2022-12-09T00:52:27.412Z,12.63
2022-12-09T00:53:29.328Z,11.90
2022-12-09T00:54:31.406Z,11.27
2022-12-09T00:55:33.279Z,12.17
2022-12-09T00:56:35.110Z,12.97
2022-12-09T00:57:37.051Z,10.07
2022-12-09T00:58:38.964Z,14.37
2022-12-09T00:59:40.879Z,11.93
2022-12-09T01:00:42.973Z,11.73
2022-12-09T01:01:45.241Z,13.70
2022-12-09T01:02:47.217Z,13.10
2022-12-09T01:03:49.459Z,12.37
2022-12-09T01:04:52.429Z,12.30
2022-12-09T01:05:55.516Z,11.47
2022-12-09T01:06:57.266Z,14.10
2022-12-09T01:07:59.194Z,10.73
2022-12-09T01:09:03.149Z,11.77
2022-12-09T01:10:06.464Z,10.90
2022-12-09T01:11:24.823Z,12.23
2022-12-09T01:12:26.618Z,11.67
2022-12-09T01:13:28.470Z,13.63
2022-12-09T01:14:30.169Z,9.60
2022-12-09T01:15:32.076Z,9.60
2022-12-09T01:16:35.037Z,9.73
2022-12-09T01:17:38.272Z,9.63
2022-12-09T01:18:40.244Z,12.70
2022-12-09T01:19:42.313Z,10.60
2022-12-09T01:20:44.272Z,11.73
2022-12-09T01:21:46.026Z,12.97
2022-12-09T01:22:48.307Z,13.50
2022-12-09T01:23:50.071Z,9.33
2022-12-09T01:24:51.903Z,9.90
2022-12-09T01:25:53.876Z,11.37
2022-12-09T01:26:55.842Z,11.90
2022-12-09T01:27:57.622Z,11.37
2022-12-09T01:28:59.461Z,9.50
2022-12-09T01:30:01.116Z,10.63
2022-12-09T01:31:11.519Z,10.90
2022-12-09T01:32:13.639Z,12.50
2022-12-09T01:33:15.730Z,10.73
2022-12-09T01:34:17.442Z,13.33
2022-12-09T01:35:19.395Z,10.80
2022-12-09T01:36:24.612Z,11.30
2022-12-09T01:37:26.553Z,12.03
2022-12-09T01:38:28.321Z,12.03
2022-12-09T01:39:30.026Z,9.90
2022-12-09T01:40:32.027Z,12.40
2022-12-09T01:41:34.629Z,11.83
2022-12-09T01:42:36.937Z,10.17
2022-12-09T01:43:40.289Z,10.70
2022-12-09T01:45:20.257Z,11.47
2022-12-09T01:46:22.708Z,10.93
2022-12-09T01:47:24.519Z,11.00
2022-12-09T01:48:42.544Z,11.83
2022-12-09T01:49:48.191Z,10.93
2022-12-09T01:50:55.142Z,11.47
2022-12-09T01:52:14.133Z,11.07
2022-12-09T01:53:18.299Z,13.13
2022-12-09T01:54:20.010Z,10.80
2022-12-09T01:55:22.205Z,11.50
2022-12-09T01:56:27.738Z,14.03
2022-12-09T01:57:29.728Z,12.90
2022-12-09T01:58:32.143Z,10.53
2022-12-09T01:59:34.221Z,10.17
2022-12-09T02:00:36.485Z,10.07
2022-12-09T02:01:39.398Z,10.30
2022-12-09T02:02:44.617Z,11.23
2022-12-09T02:03:46.897Z,11.63
2022-12-09T02:04:50.281Z,10.67
2022-12-09T02:05:52.808Z,12.03
2022-12-09T02:06:54.549Z,11.10
2022-12-09T02:07:56.556Z,11.07
2022-12-09T02:08:58.946Z,9.60
2022-12-09T02:10:01.331Z,10.63
2022-12-09T02:11:11.960Z,10.03
2022-12-09T02:12:27.966Z,10.87
2022-12-09T02:13:38.141Z,13.20
2022-12-09T02:14:51.155Z,14.13
2022-12-09T02:15:57.362Z,10.93
2022-12-09T02:17:20.744Z,9.90
2022-12-09T02:18:31.551Z,13.77
2022-12-09T02:19:45.910Z,10.23
2022-12-09T02:21:11.259Z,12.27
2022-12-09T02:22:18.648Z,9.03
2022-12-09T02:23:29.212Z,9.43
2022-12-09T02:24:39.308Z,11.57
2022-12-09T02:26:22.122Z,8.30
2022-12-09T02:27:31.785Z,8.53
2022-12-09T02:28:36.698Z,9.03
2022-12-09T02:29:47.321Z,11.23
2022-12-09T02:30:57.932Z,11.77
2022-12-09T02:31:59.741Z,12.00
2022-12-09T02:33:21.627Z,9.50
2022-12-09T02:34:30.118Z,10.97
2022-12-09T02:35:35.358Z,10.33
2022-12-09T02:36:59.043Z,10.47
2022-12-09T02:38:10.725Z,9.77
2022-12-09T02:39:12.851Z,11.87
2022-12-09T02:40:40.556Z,10.37
2022-12-09T02:41:47.936Z,10.27
2022-12-09T02:42:50.168Z,13.17
2022-12-09T02:44:00.407Z,10.13
2022-12-09T02:45:06.302Z,11.67
2022-12-09T02:46:10.131Z,9.07
2022-12-09T02:47:15.546Z,10.90
2022-12-09T02:48:23.671Z,13.17
2022-12-09T02:49:28.348Z,11.03
2022-12-09T02:50:34.821Z,11.07
2022-12-09T02:51:42.389Z,12.33
2022-12-09T02:52:46.628Z,10.73
2022-12-09T02:53:53.155Z,10.37
2022-12-09T02:54:55.421Z,9.63
2022-12-09T02:55:57.999Z,9.37
2022-12-09T02:57:09.194Z,10.87
2022-12-09T02:58:11.164Z,11.13
2022-12-09T02:59:12.955Z,9.90
2022-12-09T03:00:15.741Z,13.20
2022-12-09T03:01:41.411Z,13.60
2022-12-09T03:02:47.855Z,11.63
2022-12-09T03:03:52.203Z,12.83
2022-12-09T03:05:26.105Z,7.77
2022-12-09T03:06:34.866Z,9.77
2022-12-09T03:08:02.096Z,11.70
2022-12-09T03:09:09.736Z,9.53
2022-12-09T03:10:25.978Z,10.63
2022-12-09T03:11:28.539Z,9.13
2022-12-09T03:12:34.905Z,10.60
2022-12-09T03:13:46.215Z,10.63
2022-12-09T03:14:52.864Z,11.00
2022-12-09T03:16:02.744Z,12.97
2022-12-09T03:17:31.013Z,11.40
2022-12-09T03:18:35.638Z,10.17
2022-12-09T03:19:49.147Z,11.60
2022-12-09T03:20:51.297Z,8.63
2022-12-09T03:21:56.788Z,9.40
2022-12-09T03:23:03.545Z,11.40
2022-12-09T03:24:09.839Z,10.83
2022-12-09T03:25:18.989Z,9.67
2022-12-09T03:26:23.441Z,10.20
2022-12-09T03:27:38.971Z,9.80
2022-12-09T03:28:45.361Z,9.43
2022-12-09T03:29:49.354Z,10.63
2022-12-09T03:30:53.455Z,9.20
2022-12-09T03:31:57.081Z,11.60
2022-12-09T03:32:59.547Z,9.97
2022-12-09T03:34:05.091Z,11.23
2022-12-09T03:35:13.235Z,11.10
2022-12-09T03:36:17.530Z,11.80
2022-12-09T03:37:21.189Z,10.13
2022-12-09T03:38:27.089Z,13.10
2022-12-09T03:39:35.109Z,11.73
2022-12-09T03:40:38.183Z,10.53
2022-12-09T03:41:46.416Z,10.20
2022-12-09T03:42:56.081Z,12.50
2022-12-09T03:44:16.392Z,10.97
2022-12-09T03:45:19.745Z,10.33
2022-12-09T03:46:22.961Z,10.63
2022-12-09T03:47:24.866Z,11.13
2022-12-09T03:48:27.341Z,12.00
2022-12-09T03:49:29.083Z,12.73
2022-12-09T03:50:40.178Z,10.10
2022-12-09T03:51:49.750Z,9.83
2022-12-09T03:53:05.175Z,9.53
2022-12-09T03:54:14.501Z,10.50
2022-12-09T03:55:37.490Z,11.40
2022-12-09T03:56:44.249Z,9.83
2022-12-09T03:57:49.017Z,9.07
2022-12-09T03:58:55.365Z,9.23
2022-12-09T04:00:00.798Z,10.13
2022-12-09T04:01:03.116Z,10.13
2022-12-09T04:02:07.008Z,10.37
2022-12-09T04:03:12.035Z,10.37
2022-12-09T04:04:14.388Z,10.47
2022-12-09T04:05:16.449Z,11.40
2022-12-09T04:06:18.422Z,8.70
2022-12-09T04:07:20.200Z,11.33
2022-12-09T04:08:22.050Z,10.07
2022-12-09T04:09:24.162Z,9.93
2022-12-09T04:10:26.149Z,11.20
2022-12-09T04:11:27.868Z,11.43
2022-12-09T04:12:29.782Z,9.20
2022-12-09T04:13:31.984Z,11.87
2022-12-09T04:14:33.888Z,10.20
2022-12-09T04:15:36.024Z,12.50
2022-12-09T04:16:38.052Z,10.77
2022-12-09T04:17:40.075Z,10.53
2022-12-09T04:18:41.858Z,11.20
2022-12-09T04:19:43.878Z,9.03
2022-12-09T04:20:46.005Z,11.43
2022-12-09T04:21:47.711Z,11.27
2022-12-09T04:22:50.093Z,11.43
2022-12-09T04:23:52.183Z,11.27
2022-12-09T04:24:54.173Z,10.90
2022-12-09T04:25:56.033Z,12.17
2022-12-09T04:26:58.075Z,11.93
2022-12-09T04:28:00.131Z,9.93
2022-12-09T04:29:02.094Z,12.40
2022-12-09T04:30:05.109Z,10.93
2022-12-09T04:31:13.832Z,11.60
2022-12-09T04:32:15.793Z,11.07
2022-12-09T04:33:17.590Z,10.70
2022-12-09T04:34:19.284Z,10.50
2022-12-09T04:35:21.099Z,11.67
2022-12-09T04:36:23.103Z,11.13
2022-12-09T04:37:25.160Z,12.20
2022-12-09T04:38:26.892Z,13.77
2022-12-09T04:39:31.608Z,11.97
2022-12-09T04:40:33.312Z,12.43
2022-12-09T04:41:36.803Z,11.80
2022-12-09T04:42:38.999Z,11.63
2022-12-09T04:43:41.169Z,13.60
2022-12-09T04:44:42.969Z,14.33
2022-12-09T04:45:44.965Z,11.50
2022-12-09T04:46:46.861Z,11.23
2022-12-09T04:47:48.721Z,11.20
2022-12-09T04:48:53.290Z,10.73
2022-12-09T04:49:55.069Z,11.17
2022-12-09T04:50:57.151Z,11.80
2022-12-09T04:51:58.973Z,11.40
2022-12-09T04:53:01.103Z,13.27
2022-12-09T04:54:03.104Z,13.53
2022-12-09T04:55:05.467Z,11.77
2022-12-09T04:56:09.232Z,11.83
2022-12-09T04:57:12.407Z,12.23
2022-12-09T04:58:14.177Z,12.23
2022-12-09T04:59:16.334Z,11.43
2022-12-09T05:00:19.595Z,10.10
2022-12-09T05:01:31.390Z,10.73
2022-12-09T05:02:34.083Z,10.83
2022-12-09T05:03:36.879Z,13.63
2022-12-09T05:04:38.899Z,13.50
2022-12-09T05:05:41.301Z,11.17
2022-12-09T05:06:43.567Z,11.00
2022-12-09T05:07:46.069Z,14.10
2022-12-09T05:08:48.704Z,11.23
2022-12-09T05:09:51.006Z,11.40
2022-12-09T05:10:53.205Z,12.50
2022-12-09T05:11:58.175Z,13.10
2022-12-09T05:13:00.293Z,14.23
2022-12-09T05:14:02.368Z,12.10
2022-12-09T05:15:04.608Z,11.07
2022-12-09T05:16:16.354Z,12.60
2022-12-09T05:17:18.989Z,13.23
2022-12-09T05:18:21.143Z,12.03
2022-12-09T05:19:23.605Z,11.37
2022-12-09T05:20:29.204Z,12.53
2022-12-09T05:21:31.952Z,13.93
2022-12-09T05:22:34.175Z,11.90
2022-12-09T05:23:37.468Z,12.07
2022-12-09T05:24:41.101Z,13.20
2022-12-09T05:25:43.315Z,15.50
2022-12-09T05:26:45.158Z,13.30
2022-12-09T05:27:47.196Z,13.33
2022-12-09T05:28:49.948Z,14.73
2022-12-09T05:29:52.049Z,12.23
2022-12-09T05:30:54.000Z,13.17
2022-12-09T05:31:56.039Z,13.20
2022-12-09T05:32:58.348Z,11.73
2022-12-09T05:34:00.659Z,13.30
2022-12-09T05:35:02.663Z,12.97
2022-12-09T05:36:04.944Z,12.30
2022-12-09T05:37:07.100Z,13.03
2022-12-09T05:38:09.056Z,10.83
2022-12-09T05:39:11.071Z,12.93
2022-12-09T05:40:13.902Z,12.50
2022-12-09T05:41:19.028Z,14.90
2022-12-09T05:42:21.099Z,14.70
2022-12-09T05:43:22.842Z,12.27
2022-12-09T05:44:24.955Z,13.37
2022-12-09T05:45:26.870Z,13.73
2022-12-09T05:46:29.868Z,13.60
2022-12-09T05:47:31.968Z,14.13
2022-12-09T05:48:34.448Z,12.90
2022-12-09T05:49:39.008Z,13.07
2022-12-09T05:50:41.700Z,14.60
2022-12-09T05:51:43.775Z,10.97
2022-12-09T05:52:45.608Z,12.40
2022-12-09T05:53:47.587Z,13.47
2022-12-09T05:54:49.333Z,13.90
2022-12-09T05:55:51.269Z,13.03
2022-12-09T05:56:53.366Z,10.83
2022-12-09T05:57:55.223Z,13.77
2022-12-09T05:58:57.231Z,13.00
2022-12-09T05:59:59.528Z,14.60
2022-12-09T06:01:06.364Z,14.17
2022-12-09T06:02:10.367Z,13.53
2022-12-09T06:03:13.138Z,14.90
2022-12-09T06:04:15.705Z,13.93
2022-12-09T06:05:18.521Z,13.27
2022-12-09T06:06:22.955Z,12.10
2022-12-09T06:07:25.306Z,12.00
2022-12-09T06:08:27.492Z,13.43
2022-12-09T06:09:29.443Z,11.57
2022-12-09T06:10:32.504Z,13.40
2022-12-09T06:11:34.842Z,12.33
2022-12-09T06:12:36.992Z,10.97
2022-12-09T06:13:39.420Z,11.87
2022-12-09T06:14:41.599Z,13.20
2022-12-09T06:15:43.661Z,14.93
2022-12-09T06:16:45.664Z,13.47
2022-12-09T06:17:48.231Z,13.43
2022-12-09T06:18:50.677Z,12.87
2022-12-09T06:19:53.289Z,12.20
2022-12-09T06:20:55.674Z,10.93
2022-12-09T06:21:57.802Z,13.90
2022-12-09T06:22:59.618Z,12.27
2022-12-09T06:24:01.892Z,14.57
2022-12-09T06:25:04.432Z,13.90
2022-12-09T06:26:06.381Z,17.13
2022-12-09T06:27:08.183Z,14.90
2022-12-09T06:28:09.969Z,11.27
2022-12-09T06:29:12.216Z,14.03
2022-12-09T06:30:14.321Z,14.23
2022-12-09T06:31:16.578Z,16.37
2022-12-09T06:32:19.052Z,14.77
2022-12-09T06:33:52.392Z,12.67
2022-12-09T06:34:43.180Z,15.50
2022-12-09T06:35:45.419Z,11.00
2022-12-09T06:36:47.442Z,13.20
2022-12-09T06:37:52.856Z,11.77
2022-12-09T06:38:56.662Z,13.73
2022-12-09T06:39:58.859Z,12.43
2022-12-09T06:41:07.061Z,16.17
2022-12-09T06:42:08.988Z,16.37
2022-12-09T06:43:11.706Z,13.50
2022-12-09T06:44:19.980Z,13.57
2022-12-09T06:45:25.334Z,12.73
2022-12-09T06:46:28.453Z,17.83
2022-12-09T06:47:30.649Z,14.30
2022-12-09T06:48:33.092Z,16.40
2022-12-09T06:49:35.324Z,15.47
2022-12-09T06:50:37.946Z,14.27
2022-12-09T06:51:40.494Z,13.47
2022-12-09T06:52:42.345Z,13.80
2022-12-09T06:53:45.063Z,16.93
2022-12-09T06:54:46.787Z,16.30
2022-12-09T06:55:48.833Z,13.13
2022-12-09T06:56:50.945Z,11.43
2022-12-09T06:57:52.891Z,12.57
2022-12-09T06:58:54.822Z,13.03
2022-12-09T06:59:56.856Z,12.33
2022-12-09T07:01:09.605Z,13.30
2022-12-09T07:02:11.984Z,12.43
2022-12-09T07:03:14.537Z,11.97
2022-12-09T07:04:17.102Z,13.47
2022-12-09T07:05:19.677Z,13.10
2022-12-09T07:06:38.750Z,13.70
2022-12-09T07:07:41.464Z,12.40
2022-12-09T07:08:43.596Z,12.33
2022-12-09T07:09:45.613Z,13.87
2022-12-09T07:10:53.080Z,16.27
2022-12-09T07:11:58.167Z,16.13
2022-12-09T07:12:59.962Z,14.17
2022-12-09T07:14:02.984Z,13.90
2022-12-09T07:15:05.751Z,15.37
2022-12-09T07:16:08.623Z,12.70
2022-12-09T07:17:20.106Z,14.80
2022-12-09T07:18:22.278Z,15.77
2022-12-09T07:19:24.682Z,15.73
2022-12-09T07:20:26.769Z,15.77
2022-12-09T07:21:29.723Z,15.30
2022-12-09T07:22:33.721Z,17.33
2022-12-09T07:23:36.452Z,18.57
2022-12-09T07:24:40.018Z,15.57
2022-12-09T07:25:42.092Z,19.50
2022-12-09T07:26:44.131Z,19.70
2022-12-09T07:27:45.977Z,17.47
2022-12-09T07:28:50.172Z,16.60
2022-12-09T07:29:52.317Z,18.40
2022-12-09T07:30:54.474Z,18.60
2022-12-09T07:31:56.539Z,18.50
2022-12-09T07:32:58.595Z,17.33
2022-12-09T07:34:01.469Z,17.73
2022-12-09T07:35:04.296Z,16.50
2022-12-09T07:36:06.515Z,18.73
2022-12-09T07:37:08.507Z,16.40
2022-12-09T07:38:10.365Z,19.60
2022-12-09T07:39:15.476Z,16.93
2022-12-09T07:40:17.430Z,17.37
2022-12-09T07:41:19.510Z,14.27
2022-12-09T07:42:21.643Z,16.17
2022-12-09T07:43:23.697Z,16.57
2022-12-09T07:44:28.944Z,18.27
2022-12-09T07:45:33.609Z,17.40
2022-12-09T07:46:35.708Z,16.07
2022-12-09T07:47:37.712Z,15.20
2022-12-09T07:48:40.006Z,15.63
2022-12-09T07:49:42.205Z,15.83
2022-12-09T07:50:44.740Z,18.13
2022-12-09T07:51:46.544Z,14.90
2022-12-09T07:52:48.611Z,17.37
2022-12-09T07:53:50.957Z,18.37
2022-12-09T07:54:52.874Z,17.33
2022-12-09T07:55:55.976Z,16.97
2022-12-09T07:56:57.896Z,17.50
2022-12-09T07:57:59.749Z,20.13
2022-12-09T07:59:01.632Z,22.87
2022-12-09T08:00:04.814Z,23.17
2022-12-09T08:01:07.623Z,23.47
2022-12-09T08:02:10.676Z,22.00
2022-12-09T08:03:13.947Z,27.47
2022-12-09T08:04:16.328Z,25.53
2022-12-09T08:05:18.757Z,25.30
2022-12-09T08:06:24.714Z,30.20
2022-12-09T08:07:27.272Z,32.80
2022-12-09T08:08:30.034Z,29.27
2022-12-09T08:09:32.134Z,25.80
2022-12-09T08:10:34.185Z,31.90
2022-12-09T08:11:37.339Z,23.10
2022-12-09T08:12:39.488Z,24.17
2022-12-09T08:13:45.065Z,24.27
2022-12-09T08:14:46.983Z,22.77
2022-12-09T08:15:48.814Z,21.13
2022-12-09T08:16:50.957Z,23.67
2022-12-09T08:17:53.666Z,21.67
2022-12-09T08:18:56.348Z,21.27
2022-12-09T08:19:58.765Z,18.13
2022-12-09T08:21:05.334Z,19.27
2022-12-09T08:22:07.535Z,21.93
2022-12-09T08:23:09.657Z,19.40
2022-12-09T08:24:12.712Z,17.40
2022-12-09T08:25:15.447Z,18.43
2022-12-09T08:26:20.083Z,20.30
2022-12-09T08:27:22.578Z,20.20
2022-12-09T08:28:24.712Z,23.13
2022-12-09T08:29:26.899Z,22.67
2022-12-09T08:30:28.931Z,20.17
2022-12-09T08:31:35.636Z,23.33
2022-12-09T08:32:40.944Z,25.67
2022-12-09T08:33:43.394Z,20.93
2022-12-09T08:34:46.055Z,20.00
2022-12-09T08:35:48.250Z,21.43
2022-12-09T08:36:50.201Z,17.07
2022-12-09T08:37:52.211Z,18.13
2022-12-09T08:38:54.700Z,20.33
2022-12-09T08:39:56.551Z,19.93
2022-12-09T08:40:59.050Z,25.73
2022-12-09T08:42:01.593Z,16.47
2022-12-09T08:43:05.730Z,15.93
2022-12-09T08:44:16.544Z,19.97
2022-12-09T08:45:18.873Z,16.10
2022-12-09T08:46:20.582Z,19.77
2022-12-09T08:47:23.052Z,19.47
2022-12-09T08:48:25.486Z,20.70
2022-12-09T08:49:28.187Z,19.33
2022-12-09T08:50:30.514Z,16.27
2022-12-09T08:51:33.242Z,16.53
2022-12-09T08:52:40.308Z,16.20
2022-12-09T08:53:42.886Z,19.27
2022-12-09T08:54:44.982Z,18.63
2022-12-09T08:55:46.932Z,18.27
2022-12-09T08:56:52.540Z,17.57
2022-12-09T08:57:54.804Z,16.10
2022-12-09T08:58:57.144Z,13.53
2022-12-09T08:59:59.168Z,15.43
2022-12-09T09:01:01.520Z,14.63
2022-12-09T09:02:04.106Z,15.40
2022-12-09T09:03:06.193Z,16.97
2022-12-09T09:04:11.614Z,20.70
2022-12-09T09:05:13.744Z,16.10
2022-12-09T09:06:18.070Z,18.50
2022-12-09T09:07:20.268Z,17.60
2022-12-09T09:08:22.178Z,16.27
2022-12-09T09:09:24.525Z,17.53
2022-12-09T09:10:26.739Z,18.70
2022-12-09T09:11:28.806Z,18.70
2022-12-09T09:12:31.147Z,19.10
2022-12-09T09:13:33.468Z,17.17
2022-12-09T09:14:35.601Z,18.23
2022-12-09T09:15:39.744Z,18.03
2022-12-09T09:16:44.237Z,21.40
2022-12-09T09:17:51.277Z,19.10
2022-12-09T09:18:54.413Z,20.77
2022-12-09T09:19:56.770Z,17.40
2022-12-09T09:20:59.666Z,19.60
2022-12-09T09:22:02.033Z,17.13
2022-12-09T09:23:04.309Z,19.30
2022-12-09T09:24:14.864Z,17.60
2022-12-09T09:25:17.073Z,16.67
2022-12-09T09:26:22.080Z,18.90
2022-12-09T09:27:24.375Z,20.10
2022-12-09T09:28:30.950Z,19.77
2022-12-09T09:29:34.211Z,18.17
2022-12-09T09:30:37.721Z,18.13
2022-12-09T09:31:40.151Z,17.30
2022-12-09T09:32:42.211Z,17.83
2022-12-09T09:33:44.614Z,19.87
2022-12-09T09:34:50.665Z,16.57
2022-12-09T09:36:05.511Z,18.93
2022-12-09T09:37:10.282Z,18.93
2022-12-09T09:38:12.708Z,19.43
2022-12-09T09:39:14.606Z,21.10
2022-12-09T09:40:17.372Z,19.00
2022-12-09T09:42:01.939Z,19.17
2022-12-09T09:43:16.843Z,17.67
2022-12-09T09:44:28.078Z,16.37
2022-12-09T09:45:30.117Z,19.83
2022-12-09T09:46:43.250Z,17.23
2022-12-09T09:48:03.088Z,17.07
2022-12-09T09:49:10.636Z,16.90
2022-12-09T09:50:33.656Z,16.77
2022-12-09T09:51:35.978Z,16.57
2022-12-09T09:52:41.543Z,17.37
2022-12-09T09:53:43.757Z,18.30
2022-12-09T09:54:45.925Z,16.00
2022-12-09T09:56:22.716Z,18.97
2022-12-09T09:57:42.469Z,17.27
2022-12-09T09:59:00.402Z,17.63
2022-12-09T10:00:22.696Z,18.50
2022-12-09T10:01:31.472Z,18.73
2022-12-09T10:02:39.989Z,19.97
2022-12-09T10:04:14.233Z,17.67
2022-12-09T10:05:54.167Z,18.17
2022-12-09T10:07:18.459Z,17.20
2022-12-09T10:09:18.326Z,18.97
2022-12-09T10:10:46.638Z,17.57
2022-12-09T10:12:10.981Z,17.57
2022-12-09T10:13:44.177Z,20.07
2022-12-09T10:15:00.173Z,17.03
2022-12-09T10:16:15.400Z,19.43
2022-12-09T10:17:26.102Z,21.37
2022-12-09T10:18:35.473Z,18.93
2022-12-09T10:19:46.867Z,16.93
2022-12-09T10:20:49.617Z,19.23
2022-12-09T10:21:54.680Z,18.73
2022-12-09T10:23:01.061Z,16.27
2022-12-09T10:24:21.135Z,21.27
2022-12-09T10:25:26.714Z,18.37
2022-12-09T10:26:31.227Z,19.27
2022-12-09T10:27:49.221Z,18.13
2022-12-09T10:28:59.407Z,18.30
2022-12-09T10:30:20.065Z,19.30
2022-12-09T10:31:22.833Z,20.43
2022-12-09T10:32:28.818Z,20.33
2022-12-09T10:33:35.344Z,20.13
2022-12-09T10:34:37.416Z,16.43
2022-12-09T10:35:39.662Z,19.53
2022-12-09T10:36:44.683Z,18.03
2022-12-09T10:37:47.912Z,20.00
2022-12-09T10:38:50.202Z,19.27
2022-12-09T10:40:00.118Z,21.60
2022-12-09T10:41:07.961Z,18.43
2022-12-09T10:42:34.789Z,18.10
2022-12-09T10:43:41.036Z,18.73
2022-12-09T10:44:43.706Z,19.90
2022-12-09T10:46:17.328Z,21.40
2022-12-09T10:47:32.596Z,19.10
2022-12-09T10:48:36.453Z,19.77
2022-12-09T10:49:43.074Z,20.27
2022-12-09T10:50:45.613Z,19.20
2022-12-09T10:51:51.021Z,20.70
2022-12-09T10:52:53.374Z,23.33
2022-12-09T10:54:05.749Z,22.23
2022-12-09T10:55:20.852Z,18.90
2022-12-09T10:56:37.856Z,22.27
2022-12-09T10:57:40.022Z,18.13
2022-12-09T10:58:42.147Z,22.83
2022-12-09T10:59:58.735Z,20.60
2022-12-09T11:01:02.909Z,16.80
2022-12-09T11:02:07.940Z,21.27
2022-12-09T11:03:30.654Z,18.97
2022-12-09T11:04:41.851Z,21.03
2022-12-09T11:05:44.041Z,17.97
2022-12-09T11:06:51.667Z,19.77
2022-12-09T11:07:58.883Z,19.23
2022-12-09T11:09:02.629Z,25.37
2022-12-09T11:10:17.071Z,21.77
2022-12-09T11:11:19.863Z,19.40
2022-12-09T11:12:30.001Z,19.60
2022-12-09T11:13:42.091Z,20.87
2022-12-09T11:14:55.653Z,18.50
2022-12-09T11:16:03.843Z,23.60
2022-12-09T11:17:30.787Z,24.07
2022-12-09T11:18:41.083Z,19.90
2022-12-09T11:19:44.554Z,19.50
2022-12-09T11:21:01.764Z,20.50
2022-12-09T11:22:40.326Z,21.50
2022-12-09T11:24:00.783Z,19.90
2022-12-09T11:25:28.787Z,23.67
2022-12-09T11:26:38.490Z,19.37
2022-12-09T11:28:01.354Z,20.90
2022-12-09T11:29:15.700Z,20.00
2022-12-09T11:30:25.271Z,21.87
2022-12-09T11:31:30.371Z,20.57
2022-12-09T11:32:57.143Z,19.17
2022-12-09T11:34:03.684Z,20.27
2022-12-09T11:35:16.343Z,22.63
2022-12-09T11:36:29.774Z,19.73
2022-12-09T11:37:33.143Z,22.87
2022-12-09T11:38:45.362Z,21.73
2022-12-09T11:39:52.809Z,23.33
2022-12-09T11:41:36.044Z,22.63
2022-12-09T11:42:37.773Z,22.07
2022-12-09T11:43:50.878Z,21.57
2022-12-09T11:45:19.295Z,22.03
2022-12-09T11:46:30.763Z,21.40
2022-12-09T11:49:17.322Z,19.30
2022-12-09T11:50:26.172Z,24.27
2022-12-09T11:51:38.403Z,20.03
2022-12-09T11:52:40.176Z,24.30
2022-12-09T11:53:41.927Z,22.10
2022-12-09T11:54:48.358Z,21.53
2022-12-09T11:55:57.995Z,19.80
2022-12-09T11:57:00.731Z,23.23
2022-12-09T11:58:06.451Z,19.00
2022-12-09T11:59:17.902Z,22.07
2022-12-09T12:00:43.694Z,18.17
2022-12-09T12:02:27.766Z,21.87
2022-12-09T12:03:47.166Z,20.83
2022-12-09T12:04:58.111Z,22.20
2022-12-09T12:06:03.028Z,22.83
2022-12-09T12:07:15.243Z,22.27
2022-12-09T12:08:34.052Z,21.03
2022-12-09T12:09:50.823Z,21.17
2022-12-09T12:11:15.490Z,20.13
2022-12-09T12:12:48.778Z,21.80
2022-12-09T12:13:57.996Z,23.47
2022-12-09T12:15:09.988Z,22.57
2022-12-09T12:16:15.401Z,20.47
2022-12-09T12:17:25.904Z,19.80
2022-12-09T12:18:32.674Z,21.63
2022-12-09T12:19:38.157Z,20.10
2022-12-09T12:21:12.474Z,22.90
2022-12-09T12:22:44.103Z,21.77
2022-12-09T12:24:04.624Z,20.70
2022-12-09T12:25:31.282Z,23.30
2022-12-09T12:26:47.097Z,21.73
2022-12-09T12:28:20.658Z,23.20
2022-12-09T12:29:42.802Z,21.87
2022-12-09T12:31:00.908Z,20.40
2022-12-09T12:32:18.648Z,21.97
2022-12-09T12:34:23.621Z,19.07
2022-12-09T12:35:28.445Z,18.73
2022-12-09T12:37:03.404Z,19.67
2022-12-09T12:38:28.053Z,22.67
2022-12-09T12:39:38.658Z,23.77
2022-12-09T12:41:06.745Z,20.43
2022-12-09T12:42:36.089Z,21.47
2022-12-09T12:44:24.034Z,21.80
2022-12-09T12:46:08.482Z,22.23
2022-12-09T12:47:57.897Z,22.17
2022-12-09T12:49:14.854Z,24.23
2022-12-09T12:50:25.415Z,21.20
2022-12-09T12:51:53.885Z,20.57
2022-12-09T12:53:23.856Z,20.17
2022-12-09T12:54:30.997Z,24.87
2022-12-09T12:55:45.102Z,21.13
2022-12-09T12:57:02.666Z,25.57
2022-12-09T12:58:25.975Z,22.60
2022-12-09T12:59:38.133Z,21.00
2022-12-09T13:01:07.812Z,23.30
2022-12-09T13:02:30.917Z,22.77
2022-12-09T13:04:09.343Z,24.33
2022-12-09T13:05:26.130Z,23.50
2022-12-09T13:06:54.695Z,22.80
2022-12-09T13:08:03.985Z,23.57
2022-12-09T13:09:13.277Z,20.00
2022-12-09T13:10:38.637Z,19.87
2022-12-09T13:11:58.946Z,22.37
2022-12-09T13:13:03.055Z,20.37
2022-12-09T13:14:11.014Z,22.00
2022-12-09T13:15:16.320Z,23.67
2022-12-09T13:16:25.405Z,24.03
2022-12-09T13:17:29.227Z,21.50
2022-12-09T13:18:38.692Z,20.90
2022-12-09T13:19:47.972Z,20.20
2022-12-09T13:20:55.007Z,23.03
2022-12-09T13:21:57.299Z,22.20
2022-12-09T13:23:09.138Z,18.10
2022-12-09T13:24:24.592Z,23.10
2022-12-09T13:25:43.393Z,20.80
2022-12-09T13:26:49.864Z,24.87
2022-12-09T13:28:09.687Z,22.43
2022-12-09T13:29:35.769Z,23.60
2022-12-09T13:30:52.661Z,19.63
2022-12-09T13:32:23.311Z,21.00
2022-12-09T13:33:52.401Z,23.80
2022-12-09T13:35:00.926Z,18.17
2022-12-09T13:36:22.828Z,22.70
2022-12-09T13:37:36.520Z,21.13
2022-12-09T13:38:42.259Z,20.70
2022-12-09T13:39:49.948Z,21.13
2022-12-09T13:40:51.711Z,19.33
2022-12-09T13:42:12.031Z,18.87
2022-12-09T13:43:24.087Z,24.83
2022-12-09T13:44:32.439Z,24.13
2022-12-09T13:45:43.315Z,21.50
2022-12-09T13:46:45.639Z,20.83
2022-12-09T13:47:47.482Z,22.37
2022-12-09T13:48:50.026Z,21.33
2022-12-09T13:50:06.952Z,24.33
2022-12-09T13:51:09.007Z,22.87
2022-12-09T13:52:10.721Z,27.83
2022-12-09T13:53:21.495Z,23.77
2022-12-09T13:54:26.192Z,25.30
2022-12-09T13:55:35.487Z,21.97
2022-12-09T13:56:37.375Z,21.17
2022-12-09T13:57:50.049Z,22.83
2022-12-09T13:59:28.962Z,21.33
2022-12-09T14:00:30.973Z,24.17
2022-12-09T14:01:50.270Z,21.10
2022-12-09T14:03:02.287Z,23.67
2022-12-09T14:04:19.109Z,24.00
2022-12-09T14:05:27.200Z,24.53
2022-12-09T14:06:57.192Z,23.27
2022-12-09T14:08:20.910Z,24.77
2022-12-09T14:09:34.584Z,21.73
2022-12-09T14:10:40.976Z,23.50
2022-12-09T14:11:49.608Z,22.07
2022-12-09T14:12:57.371Z,22.13
2022-12-09T14:14:24.056Z,25.70
2022-12-09T14:15:25.743Z,23.43
2022-12-09T14:16:30.408Z,21.60
2022-12-09T14:17:35.358Z,24.43
2022-12-09T14:18:39.934Z,27.63
2022-12-09T14:19:45.139Z,25.03
2022-12-09T14:21:18.727Z,26.10
2022-12-09T14:22:21.142Z,26.00
2022-12-09T14:23:23.480Z,26.80
2022-12-09T14:24:25.121Z,24.07
2022-12-09T14:25:27.790Z,24.67
2022-12-09T14:26:43.475Z,27.70
2022-12-09T14:28:09.923Z,26.70
2022-12-09T14:29:11.932Z,28.43
2022-12-09T14:30:34.838Z,30.03